Time;durP1;ratioP1;P1;durP2;ratioP2;P2;SDS_P1;SDS_P2;PMS_P1;PMS_P2;Temp;Humidity;BMP_temperature;BMP_pressure;BME280_temperature;BME280_humidity;BME280_pressure;Samples;Min_cycle;Max_cycle;Signal;HPM_P1;HPM_P2
2022/05/01 00:01:04;;;;;;;;;7.50;7.25;;;;;10.93;51.40;102110.66;5041762;28;45477;-72
2022/05/01 00:03:33;;;;;;;;;11.00;8.75;;;;;10.90;49.77;102113.28;5041870;28;45481;-73
2022/05/01 00:06:04;;;;;;;;;15.50;13.00;;;;;10.84;51.44;102124.59;5042013;28;45292;-73
2022/05/01 00:08:29;;;;;;;;;12.75;10.75;;;;;10.79;50.45;102115.09;5033064;28;45337;-74
2022/05/01 00:10:56;;;;;;;;;13.00;9.00;;;;;10.77;51.73;102107.31;5041772;28;45396;-72
2022/05/01 00:13:24;;;;;;;;;16.00;13.00;;;;;10.72;51.69;102111.66;5054247;28;45367;-73
2022/05/01 00:15:50;;;;;;;;;13.00;12.00;;;;;10.65;52.98;102108.25;5042298;28;45244;-73
2022/05/01 00:18:16;;;;;;;;;11.50;9.50;;;;;10.64;50.92;102116.94;5054027;28;45422;-71
2022/05/01 00:20:41;;;;;;;;;12.50;8.50;;;;;10.63;51.33;102112.59;5041819;28;45244;-71
2022/05/01 00:23:06;;;;;;;;;11.25;8.75;;;;;10.58;52.18;102100.47;5041544;28;46064;-71
2022/05/01 00:25:32;;;;;;;;;9.00;9.00;;;;;10.57;52.62;102104.81;5050862;28;45453;-72
2022/05/01 00:27:58;;;;;;;;;15.00;12.25;;;;;10.51;53.50;102102.25;5044548;28;45352;-73
2022/05/01 00:30:26;;;;;;;;;10.75;8.50;;;;;10.46;52.82;102103.16;5033780;28;45462;-72
2022/05/01 00:38:20;;;;;;;;;13.50;10.75;;;;;10.40;53.64;102101.44;5054022;28;45378;-72
2022/05/01 00:40:45;;;;;;;;;9.75;9.25;;;;;10.33;54.95;102103.22;5041359;28;45477;-71
2022/05/01 00:43:11;;;;;;;;;14.75;9.50;;;;;10.33;53.21;102104.94;5040945;28;46503;-78
2022/05/01 00:45:36;;;;;;;;;10.00;7.75;;;;;10.32;53.78;102100.63;5038504;28;45646;-78
2022/05/01 00:48:02;;;;;;;;;16.25;12.25;;;;;10.32;52.92;102105.81;5038561;28;45340;-76
2022/05/01 00:50:27;;;;;;;;;12.75;11.50;;;;;10.31;53.41;102102.34;5038882;28;45441;-78
2022/05/01 00:52:54;;;;;;;;;12.75;11.75;;;;;10.31;52.56;102091.09;5039003;28;46032;-78
2022/05/01 00:55:20;;;;;;;;;8.50;8.00;;;;;10.26;53.98;102090.28;5038974;28;45902;-78
2022/05/01 00:57:49;;;;;;;;;14.50;9.75;;;;;10.21;55.28;102095.50;5043282;28;45363;-75
2022/05/01 01:00:19;;;;;;;;;11.50;9.75;;;;;10.15;53.92;102085.06;5047339;28;45560;-78
2022/05/01 01:02:46;;;;;;;;;13.25;10.75;;;;;10.12;55.40;102085.09;5037619;28;48275;-81
2022/05/01 01:05:12;;;;;;;;;12.25;10.00;;;;;10.10;55.58;102088.56;5044528;28;45378;-76
2022/05/01 01:07:38;;;;;;;;;8.75;8.75;;;;;10.06;55.14;102083.38;5045317;28;45513;-76
2022/05/01 01:10:04;;;;;;;;;13.75;9.25;;;;;10.09;54.55;102081.66;5038047;28;45387;-76
2022/05/01 01:15:14;;;;;;;;;19.25;10.75;;;;;10.07;54.13;102082.50;5027003;28;45371;-74
2022/05/01 01:17:41;;;;;;;;;15.25;9.00;;;;;10.10;53.10;102081.63;5036492;28;45831;-72
2022/05/01 01:20:17;;;;;;;;;11.75;11.00;;;;;10.10;54.84;102078.19;5033231;28;45544;-69
2022/05/01 01:22:44;;;;;;;;;14.25;10.00;;;;;10.10;53.83;102079.03;5039274;28;45502;-69
2022/05/01 01:25:11;;;;;;;;;12.50;12.00;;;;;10.07;54.20;102077.31;5043335;28;45797;-68
2022/05/01 01:27:45;;;;;;;;;19.25;16.75;;;;;10.06;53.52;102083.38;5046798;28;45459;-71
2022/05/01 01:32:56;;;;;;;;;18.75;11.50;;;;;10.05;54.12;102084.25;5039916;28;45405;-69
2022/05/01 01:35:26;;;;;;;;;16.00;13.75;;;;;10.05;53.88;102084.25;5040866;28;45859;-69
2022/05/01 01:37:53;;;;;;;;;15.50;13.75;;;;;10.01;54.53;102079.94;5049319;28;45439;-69
2022/05/01 01:40:25;;;;;;;;;16.00;12.00;;;;;10.00;54.19;102077.34;5040237;28;45565;-72
2022/05/01 01:42:54;;;;;;;;;14.00;11.75;;;;;9.96;54.21;102076.47;5042854;28;46287;-73
2022/05/01 01:45:20;;;;;;;;;17.75;15.00;;;;;9.91;52.99;102080.84;5050574;28;45351;-71
2022/05/01 01:47:49;;;;;;;;;11.75;11.75;;;;;9.90;54.74;102084.31;5048177;28;45296;-71
2022/05/01 01:50:17;;;;;;;;;24.50;13.00;;;;;9.86;55.04;102080.00;5046188;28;45528;-73
2022/05/01 01:52:46;;;;;;;;;19.00;13.50;;;;;9.83;56.38;102077.41;5046110;28;45614;-73
2022/05/01 01:55:20;;;;;;;;;15.25;12.00;;;;;9.82;54.67;102075.69;5041625;28;45442;-72
2022/05/01 01:57:46;;;;;;;;;13.25;12.25;;;;;9.78;55.68;102081.72;5043578;28;45291;-71
2022/05/01 02:00:12;;;;;;;;;16.50;13.25;;;;;9.74;57.84;102078.28;5051091;28;45208;-71
2022/05/01 02:02:38;;;;;;;;;14.50;12.00;;;;;9.69;55.58;102074.84;5045011;28;47548;-70
2022/05/01 02:05:05;;;;;;;;;16.50;14.50;;;;;9.67;56.24;102076.59;5043562;28;46119;-71
2022/05/01 02:07:31;;;;;;;;;16.50;14.25;;;;;9.67;55.79;102065.34;5039995;28;45445;-69
2022/05/01 02:09:57;;;;;;;;;19.25;14.50;;;;;9.67;56.33;102067.94;5039486;28;45311;-70
2022/05/01 02:12:22;;;;;;;;;18.25;13.00;;;;;9.64;56.68;102065.34;5043251;28;46346;-70
2022/05/01 02:14:48;;;;;;;;;15.75;13.50;;;;;9.62;55.61;102065.34;5042038;28;45312;-69
2022/05/01 02:17:13;;;;;;;;;19.75;17.50;;;;;9.60;56.39;102059.28;5039868;28;45394;-69
2022/05/01 02:19:38;;;;;;;;;15.25;13.00;;;;;9.59;57.20;102061.88;5039690;28;45246;-69
2022/05/01 02:22:04;;;;;;;;;14.50;12.50;;;;;9.54;57.82;102058.44;5039237;28;45514;-69
2022/05/01 02:24:30;;;;;;;;;13.75;12.25;;;;;9.51;55.76;102063.63;5039835;28;45206;-69
2022/05/01 02:26:56;;;;;;;;;16.50;16.50;;;;;9.50;55.59;102067.97;5045863;28;45825;-69
2022/05/01 02:29:21;;;;;;;;;16.75;14.50;;;;;9.49;56.42;102062.78;5032629;28;45478;-69
2022/05/01 02:31:53;;;;;;;;;18.00;14.75;;;;;9.47;56.21;102057.59;5036615;28;46677;-68
2022/05/01 02:34:20;;;;;;;;;19.25;15.75;;;;;9.48;57.43;102058.47;5039349;28;45833;-72
2022/05/01 02:36:46;;;;;;;;;20.75;13.00;;;;;9.48;56.74;102055.88;5037033;28;45977;-73
2022/05/01 02:39:11;;;;;;;;;18.75;17.25;;;;;9.48;56.18;102046.34;5039364;28;45241;-72
2022/05/01 02:41:37;;;;;;;;;15.25;13.00;;;;;9.49;56.06;102055.00;5039524;28;46049;-73
2022/05/01 02:44:03;;;;;;;;;20.50;15.50;;;;;9.43;56.48;102042.91;5039435;28;45274;-73
2022/05/01 02:46:28;;;;;;;;;15.50;14.25;;;;;9.43;56.06;102048.09;5039480;28;45452;-74
2022/05/01 02:48:54;;;;;;;;;16.00;14.50;;;;;9.37;56.24;102048.94;5038729;28;45394;-75
2022/05/01 02:51:20;;;;;;;;;14.50;13.50;;;;;9.40;56.40;102051.53;5039123;28;45342;-74
2022/05/01 02:53:45;;;;;;;;;19.00;16.50;;;;;9.39;56.35;102041.16;5037905;28;45327;-74
2022/05/01 02:56:11;;;;;;;;;16.75;13.00;;;;;9.35;57.82;102039.44;5033834;28;45325;-74
2022/05/01 02:58:36;;;;;;;;;17.25;14.50;;;;;9.33;56.63;102036.00;5039153;28;45446;-74
2022/05/01 03:01:02;;;;;;;;;19.50;16.00;;;;;9.33;57.30;102036.84;5038962;28;45434;-74
2022/05/01 03:03:28;;;;;;;;;22.25;16.50;;;;;9.31;57.03;102029.94;5036770;28;45866;-74
2022/05/01 03:05:54;;;;;;;;;17.75;15.25;;;;;9.30;57.80;102025.63;5037959;28;45392;-74
2022/05/01 03:08:21;;;;;;;;;26.00;18.00;;;;;9.30;57.96;102026.50;5039017;28;45201;-74
2022/05/01 03:10:47;;;;;;;;;15.25;15.25;;;;;9.29;57.52;102035.13;5044840;28;45280;-74
2022/05/01 03:13:13;;;;;;;;;21.25;16.75;;;;;9.28;59.05;102030.81;5038982;28;45289;-74
2022/05/01 03:15:39;;;;;;;;;17.00;16.25;;;;;9.24;57.67;102034.28;5039015;28;45485;-74
2022/05/01 03:23:33;;;;;;;;;23.00;17.50;;;;;9.15;57.85;102034.28;5042417;28;45861;-74
2022/05/01 03:25:59;;;;;;;;;17.00;16.00;;;;;9.13;58.23;102018.72;5042673;28;45603;-74
2022/05/01 03:28:25;;;;;;;;;24.25;20.25;;;;;9.10;58.27;102010.94;5042622;28;45431;-74
2022/05/01 03:30:52;;;;;;;;;22.00;14.50;;;;;9.10;59.05;102010.94;5046648;28;46259;-74
2022/05/01 03:33:21;;;;;;;;;20.00;17.00;;;;;9.08;57.77;102012.69;5042547;28;45513;-74
2022/05/01 03:35:47;;;;;;;;;20.00;15.50;;;;;9.07;58.34;102020.47;5042207;28;45225;-75
2022/05/01 03:38:12;;;;;;;;;20.75;18.25;;;;;9.08;57.94;102011.81;5042162;28;45542;-75
2022/05/01 03:40:38;;;;;;;;;26.00;23.25;;;;;9.06;57.72;102014.41;5042125;28;46572;-75
2022/05/01 03:43:04;;;;;;;;;21.00;18.75;;;;;9.05;58.71;102022.19;5041991;28;45225;-75
2022/05/01 03:45:30;;;;;;;;;18.75;15.25;;;;;9.04;59.02;102018.75;5042096;28;45418;-75
2022/05/01 03:47:55;;;;;;;;;14.50;14.50;;;;;9.02;59.51;102014.44;5041578;28;45389;-74
2022/05/01 03:50:20;;;;;;;;;23.75;16.50;;;;;8.99;59.18;102011.81;5039414;28;46052;-73
2022/05/01 03:52:47;;;;;;;;;22.75;15.50;;;;;8.96;58.95;102012.69;5041975;28;45542;-74
2022/05/01 03:55:12;;;;;;;;;24.25;15.00;;;;;8.95;57.72;102010.09;5046833;28;45309;-74
2022/05/01 03:57:38;;;;;;;;;21.50;17.00;;;;;8.95;58.90;102004.91;5041908;28;45404;-73
2022/05/01 04:00:06;;;;;;;;;21.00;17.75;;;;;8.94;58.45;102013.53;5041801;28;46486;-74
2022/05/01 04:02:40;;;;;;;;;21.75;16.75;;;;;8.90;59.06;102019.59;5050277;28;45288;-74
2022/05/01 04:05:06;;;;;;;;;20.50;18.25;;;;;8.89;59.39;102010.09;5045433;28;45454;-74
2022/05/01 04:07:31;;;;;;;;;20.75;19.00;;;;;8.90;60.13;102015.28;5041854;28;45423;-75
2022/05/01 04:09:57;;;;;;;;;27.75;20.25;;;;;8.87;59.54;102017.03;5041659;28;45356;-76
2022/05/01 04:12:22;;;;;;;;;14.25;10.75;;;;;8.86;61.50;102016.16;5042229;28;45264;-76
2022/05/01 04:14:47;;;;;;;;;20.00;15.25;;;;;8.82;59.71;102015.28;5053615;28;45461;-76
2022/05/01 04:17:13;;;;;;;;;24.75;19.50;;;;;8.79;61.45;102011.81;5041614;28;45540;-75
2022/05/01 04:19:39;;;;;;;;;29.00;23.00;;;;;8.76;60.61;102015.28;5041564;28;45597;-74
2022/05/01 04:22:04;;;;;;;;;27.75;19.25;;;;;8.79;60.49;102009.22;5050634;28;45454;-75
2022/05/01 04:24:29;;;;;;;;;25.00;18.25;;;;;8.77;60.74;102005.75;5045342;28;45386;-75
2022/05/01 04:26:55;;;;;;;;;19.75;15.50;;;;;8.80;59.93;102011.81;5041537;28;46247;-75
2022/05/01 04:29:36;;;;;;;;;29.00;16.75;;;;;8.75;62.23;102000.59;5041465;28;45519;-75
2022/05/01 04:32:04;;;;;;;;;27.75;18.25;;;;;8.73;60.68;102017.88;5041277;28;45284;-75
2022/05/01 04:34:29;;;;;;;;;23.00;18.50;;;;;8.72;60.86;102012.69;5041429;28;45529;-74
2022/05/01 04:36:55;;;;;;;;;20.50;17.50;;;;;8.73;60.83;102015.28;5033621;28;45314;-74
2022/05/01 04:39:20;;;;;;;;;21.50;16.50;;;;;8.76;61.22;102014.41;5039852;28;45441;-74
2022/05/01 04:41:46;;;;;;;;;22.25;17.50;;;;;8.79;61.18;102011.81;5041351;28;45383;-75
2022/05/01 04:44:11;;;;;;;;;29.50;17.00;;;;;8.81;60.99;102008.38;5041003;28;45510;-74
2022/05/01 04:46:36;;;;;;;;;24.25;18.00;;;;;8.84;61.03;102010.09;5041785;28;45259;-75
2022/05/01 04:49:02;;;;;;;;;29.50;22.00;;;;;8.88;60.86;102008.38;5040775;28;46293;-75
2022/05/01 04:51:27;;;;;;;;;28.00;21.50;;;;;8.87;60.74;102012.69;5040980;28;45316;-76
2022/05/01 04:53:53;;;;;;;;;21.75;18.00;;;;;8.90;60.59;102007.50;5041143;28;45322;-75
2022/05/01 04:59:02;;;;;;;;;33.00;26.25;;;;;8.88;59.85;102011.81;5040892;28;45417;-73
2022/05/01 05:01:27;;;;;;;;;28.00;23.25;;;;;8.83;60.72;102011.84;5040685;28;45399;-74
2022/05/01 05:03:53;;;;;;;;;28.50;20.25;;;;;8.85;60.05;102019.63;5041183;28;45221;-73
2022/05/01 05:06:18;;;;;;;;;21.25;15.75;;;;;8.87;60.61;102017.03;5040791;28;45284;-73
2022/05/01 05:11:27;;;;;;;;;26.25;18.75;;;;;8.97;60.55;102034.28;5040689;28;45371;-74
2022/05/01 05:13:52;;;;;;;;;20.75;18.25;;;;;8.98;60.19;102029.09;5042743;28;45375;-74
2022/05/01 05:16:18;;;;;;;;;16.00;10.25;;;;;8.99;60.79;102028.22;5040426;28;45332;-73
2022/05/01 05:18:44;;;;;;;;;28.50;20.50;;;;;9.04;61.17;102026.53;5044766;28;46592;-72
2022/05/01 05:21:09;;;;;;;;;16.75;15.50;;;;;9.08;60.44;102032.56;5048494;28;45415;-72
2022/05/01 05:23:35;;;;;;;;;20.00;18.00;;;;;9.10;60.44;102033.44;5050282;28;45455;-72
2022/05/01 05:26:01;;;;;;;;;20.25;16.00;;;;;9.14;60.31;102033.41;5045518;28;45298;-72
2022/05/01 05:28:26;;;;;;;;;26.00;21.25;;;;;9.18;60.53;102039.47;5048676;28;45158;-72
2022/05/01 05:30:52;;;;;;;;;25.00;19.25;;;;;9.24;61.36;102039.47;5045960;28;45158;-71
2022/05/01 05:33:18;;;;;;;;;24.00;22.25;;;;;9.28;62.15;102043.78;5050345;28;45436;-72
2022/05/01 05:35:44;;;;;;;;;24.00;22.75;;;;;9.28;61.05;102036.00;5048374;28;45586;-72
2022/05/01 05:38:09;;;;;;;;;22.00;20.25;;;;;9.33;61.37;102034.25;5048630;28;46133;-72
2022/05/01 05:40:34;;;;;;;;;20.75;18.50;;;;;9.40;61.07;102048.94;5046052;28;45422;-72
2022/05/01 05:43:00;;;;;;;;;28.50;20.25;;;;;9.47;60.84;102041.16;5049504;28;45405;-72
2022/05/01 05:45:25;;;;;;;;;31.00;23.00;;;;;9.52;61.36;102036.81;5050782;28;45762;-73
2022/05/01 05:47:51;;;;;;;;;18.50;15.00;;;;;9.56;61.03;102041.13;5040816;28;45781;-72
2022/05/01 05:50:16;;;;;;;;;24.75;17.25;;;;;9.59;62.03;102033.31;5047086;28;45601;-72
2022/05/01 05:52:42;;;;;;;;;30.25;22.75;;;;;9.64;61.38;102034.22;5047524;28;45357;-73
2022/05/01 05:55:08;;;;;;;;;29.75;21.25;;;;;9.70;60.55;102041.97;5048800;28;46315;-72
2022/05/01 05:57:33;;;;;;;;;26.75;22.50;;;;;9.71;60.03;102036.75;5077425;27;47626;-73
2022/05/01 05:59:59;;;;;;;;;23.00;19.50;;;;;9.75;59.90;102037.63;5044903;28;46060;-73
2022/05/01 06:02:24;;;;;;;;;24.00;21.00;;;;;9.83;60.32;102035.00;5046747;28;45411;-73
2022/05/01 06:04:49;;;;;;;;;18.00;16.00;;;;;9.85;60.57;102028.06;5048111;28;45509;-73
2022/05/01 06:07:15;;;;;;;;;28.25;21.50;;;;;9.83;61.23;102015.09;5048828;28;45409;-73
2022/05/01 06:09:40;;;;;;;;;27.00;24.75;;;;;9.99;59.93;102024.53;5049074;28;45452;-73
2022/05/01 06:12:08;;;;;;;;;34.75;22.50;;;;;10.14;60.23;102030.53;5041811;28;45410;-73
2022/05/01 06:14:35;;;;;;;;;21.00;19.50;;;;;10.25;60.42;102040.03;5039718;28;45414;-73
2022/05/01 06:17:00;;;;;;;;;26.00;22.75;;;;;10.33;60.40;102043.44;5039409;28;45573;-72
2022/05/01 06:19:25;;;;;;;;;31.50;23.25;;;;;10.43;59.61;102036.47;5039333;28;45618;-73
2022/05/01 06:21:51;;;;;;;;;26.75;23.25;;;;;10.48;59.89;102034.72;5039660;28;45238;-73
2022/05/01 06:24:16;;;;;;;;;28.75;21.50;;;;;10.58;59.46;102036.34;5039401;28;45292;-71
2022/05/01 06:26:41;;;;;;;;;31.00;23.00;;;;;10.70;59.20;102035.41;5039553;28;45356;-72
2022/05/01 06:29:08;;;;;;;;;35.50;24.00;;;;;10.82;59.07;102044.88;5039474;28;45315;-73
2022/05/01 06:31:34;;;;;;;;;32.75;27.50;;;;;10.87;59.19;102040.50;5037092;28;46468;-73
2022/05/01 06:33:59;;;;;;;;;29.75;24.75;;;;;10.94;58.74;102044.75;5039172;28;45442;-73
2022/05/01 06:36:25;;;;;;;;;30.75;26.75;;;;;11.07;58.77;102041.19;5038976;28;47169;-72
2022/05/01 06:38:51;;;;;;;;;34.00;27.50;;;;;11.26;58.69;102040.16;5039523;28;45438;-72
2022/05/01 06:41:17;;;;;;;;;27.75;20.25;;;;;11.40;58.27;102039.13;5039832;28;45276;-72
2022/05/01 06:43:43;;;;;;;;;26.50;23.50;;;;;11.48;57.82;102048.63;5039221;28;45221;-73
2022/05/01 06:46:08;;;;;;;;;40.75;30.50;;;;;11.56;57.84;102046.78;5037893;28;47339;-72
2022/05/01 06:48:33;;;;;;;;;29.50;26.25;;;;;11.64;57.81;102046.72;5037849;28;45247;-73
2022/05/01 06:50:59;;;;;;;;;34.00;24.75;;;;;11.78;57.60;102054.34;5039497;28;45386;-73
2022/05/01 06:53:24;;;;;;;;;34.25;28.00;;;;;11.90;57.13;102058.59;5037822;28;45361;-74
2022/05/01 06:55:50;;;;;;;;;29.75;26.50;;;;;11.98;56.69;102056.75;5040269;28;45347;-73
2022/05/01 06:58:16;;;;;;;;;34.50;30.75;;;;;12.03;56.67;102066.25;5042740;28;45417;-74
2022/05/01 07:00:41;;;;;;;;;22.25;19.25;;;;;12.08;56.47;102061.84;5043019;28;45367;-74
2022/05/01 07:03:06;;;;;;;;;32.25;29.25;;;;;12.13;56.41;102056.56;5042908;28;45302;-73
2022/05/01 07:05:32;;;;;;;;;37.00;29.00;;;;;12.22;56.06;102056.47;5042782;28;46210;-72
2022/05/01 07:07:57;;;;;;;;;34.50;29.75;;;;;12.25;56.09;102047.75;5042931;28;45309;-73
2022/05/01 07:10:23;;;;;;;;;34.25;29.00;;;;;12.34;55.95;102053.69;5042858;28;45315;-72
2022/05/01 07:12:49;;;;;;;;;34.50;25.75;;;;;12.39;55.87;102049.25;5042511;28;45344;-71
2022/05/01 07:15:14;;;;;;;;;36.75;30.00;;;;;12.47;55.64;102057.84;5048849;28;46409;-72
2022/05/01 07:17:40;;;;;;;;;30.75;25.50;;;;;12.51;55.34;102045.63;5042277;28;45236;-70
2022/05/01 07:20:06;;;;;;;;;24.00;22.00;;;;;12.49;54.95;102050.00;5042758;28;45192;-71
2022/05/01 07:22:33;;;;;;;;;39.25;30.25;;;;;12.55;55.28;102052.50;5042167;28;45520;-71
2022/05/01 07:24:58;;;;;;;;;20.25;19.50;;;;;12.64;55.10;102046.31;5041268;28;46624;-71
2022/05/01 07:27:24;;;;;;;;;39.50;33.25;;;;;12.67;55.08;102052.34;5042167;28;45371;-70
2022/05/01 07:29:49;;;;;;;;;29.50;26.75;;;;;12.72;55.12;102047.91;5043662;28;45601;-68
2022/05/01 07:32:15;;;;;;;;;28.00;23.00;;;;;12.77;54.74;102047.84;5051254;28;45572;-69
2022/05/01 07:34:41;;;;;;;;;35.50;31.50;;;;;12.84;54.71;102049.47;5044939;28;45535;-68
2022/05/01 07:37:07;;;;;;;;;40.50;32.00;;;;;12.93;54.76;102051.94;5041811;28;45339;-68
2022/05/01 07:39:33;;;;;;;;;33.00;27.00;;;;;13.02;54.46;102061.38;5051397;28;45749;-71
2022/05/01 07:41:58;;;;;;;;;29.50;26.75;;;;;13.01;54.08;102057.00;5046940;28;45442;-70
2022/05/01 07:44:23;;;;;;;;;36.50;30.75;;;;;12.98;53.53;102041.41;5041926;28;46500;-67
2022/05/01 07:46:51;;;;;;;;;34.00;28.50;;;;;13.00;54.10;102044.84;5054481;28;45600;-66
2022/05/01 07:49:17;;;;;;;;;33.00;29.50;;;;;13.02;54.10;102043.97;5044601;28;45462;-67
2022/05/01 07:51:42;;;;;;;;;35.75;30.25;;;;;13.07;54.25;102031.69;5041803;28;45228;-67
2022/05/01 07:54:07;;;;;;;;;34.25;30.25;;;;;13.20;53.21;102034.97;5041913;28;46350;-67
2022/05/01 07:56:34;;;;;;;;;37.00;33.25;;;;;13.24;53.34;102033.19;5044610;28;45553;-68
2022/05/01 07:58:59;;;;;;;;;25.25;21.00;;;;;13.25;52.86;102027.94;5046901;28;45472;-68
2022/05/01 08:01:25;;;;;;;;;34.25;25.50;;;;;13.31;52.75;102026.94;5047893;28;45988;-74
2022/05/01 08:06:35;;;;;;;;;34.50;23.25;;;;;13.45;52.61;102029.31;5048159;28;45359;-71
2022/05/01 08:09:01;;;;;;;;;35.00;26.75;;;;;13.48;52.37;102016.19;5042068;28;45359;-69
2022/05/01 08:11:26;;;;;;;;;33.75;30.00;;;;;13.47;52.23;102011.88;5041465;28;45591;-70
2022/05/01 08:13:51;;;;;;;;;31.75;27.00;;;;;13.52;52.19;102015.25;5039940;28;48213;-70
2022/05/01 08:16:17;;;;;;;;;32.00;26.75;;;;;13.56;51.67;102020.38;5051138;28;45280;-70
2022/05/01 08:21:28;;;;;;;;;35.50;29.00;;;;;13.69;50.89;102018.38;5050060;28;45384;-68
2022/05/01 08:23:54;;;;;;;;;31.75;24.00;;;;;13.81;51.33;102017.25;5051236;28;46300;-70
2022/05/01 08:26:21;;;;;;;;;27.75;22.75;;;;;13.95;51.35;102017.84;5048364;28;45277;-72
2022/05/01 08:28:46;;;;;;;;;34.00;26.00;;;;;13.98;50.07;102020.38;5041569;28;45275;-72
2022/05/01 08:31:13;;;;;;;;;34.75;29.50;;;;;13.99;50.51;102019.50;5043061;28;45601;-69
2022/05/01 08:33:39;;;;;;;;;25.25;20.75;;;;;14.03;51.00;102002.03;5041436;28;45266;-68
2022/05/01 08:36:06;;;;;;;;;28.75;23.75;;;;;14.05;49.75;102011.56;5041014;28;45954;-69
2022/05/01 08:38:32;;;;;;;;;36.00;26.00;;;;;14.02;49.55;101998.56;5041383;28;45483;-69
2022/05/01 08:40:59;;;;;;;;;26.75;22.25;;;;;14.04;49.78;102001.13;5049897;28;45445;-68
2022/05/01 08:43:25;;;;;;;;;26.00;22.25;;;;;14.15;50.39;102002.59;5042522;28;46309;-68
2022/05/01 08:46:10;;;;;;;;;32.50;28.25;;;;;14.23;49.83;102000.69;5039777;28;45652;-68
2022/05/01 08:49:04;;;;;;;;;26.00;25.00;;;;;14.32;49.33;101997.00;5046253;28;46426;-70
2022/05/01 08:51:41;;;;;;;;;32.25;25.25;;;;;14.36;49.34;102003.88;5039020;28;45498;-70
2022/05/01 08:54:08;;;;;;;;;24.00;21.00;;;;;14.42;49.13;102002.88;5039265;28;45444;-69
2022/05/01 08:56:36;;;;;;;;;30.75;26.50;;;;;14.50;49.23;101993.13;5039158;28;45368;-71
2022/05/01 08:59:04;;;;;;;;;27.75;19.50;;;;;14.59;48.40;101998.13;5039094;28;45444;-71
2022/05/01 09:01:33;;;;;;;;;18.75;15.25;;;;;14.65;48.22;101998.00;5037634;28;45352;-70
2022/05/01 09:03:58;;;;;;;;;26.50;21.50;;;;;14.68;48.32;101994.44;5038725;28;45479;-69
2022/05/01 09:06:24;;;;;;;;;26.00;22.00;;;;;14.78;47.73;101994.16;5038282;28;45471;-69
2022/05/01 09:08:51;;;;;;;;;30.50;24.75;;;;;14.85;47.00;101985.28;5038515;28;45541;-69
2022/05/01 09:14:02;;;;;;;;;27.25;23.75;;;;;14.94;47.07;101988.53;5044360;28;45328;-70
2022/05/01 09:16:27;;;;;;;;;30.25;23.00;;;;;15.07;46.75;101984.72;5042881;28;45351;-74
2022/05/01 09:18:52;;;;;;;;;25.25;22.25;;;;;15.15;46.91;101988.84;5040109;28;45327;-75
2022/05/01 09:21:18;;;;;;;;;30.75;24.25;;;;;15.23;46.14;101986.03;5040502;28;45543;-75
2022/05/01 09:23:45;;;;;;;;;27.50;21.00;;;;;15.37;46.72;101983.03;5045674;28;45427;-75
2022/05/01 09:26:12;;;;;;;;;21.50;16.50;;;;;15.57;46.13;101983.34;5038765;28;45322;-70
2022/05/01 09:28:51;;;;;;;;;26.25;20.25;;;;;15.72;44.35;101980.31;5041468;28;45295;-69
2022/05/01 09:31:17;;;;;;;;;25.50;20.75;;;;;15.91;44.10;101975.38;5040137;28;45327;-71
2022/05/01 09:33:43;;;;;;;;;24.25;20.00;;;;;16.18;43.77;101980.69;5040612;28;46377;-69
2022/05/01 09:36:10;;;;;;;;;20.25;18.00;;;;;16.40;44.57;101979.09;5039905;28;45309;-76
2022/05/01 09:38:35;;;;;;;;;20.50;19.75;;;;;16.51;43.29;101973.53;5040373;28;45310;-72
2022/05/01 09:41:13;;;;;;;;;25.50;21.50;;;;;16.61;42.19;101973.16;5040508;28;45208;-74
2022/05/01 09:43:43;;;;;;;;;28.75;15.00;;;;;16.68;40.76;101979.13;5038803;28;45657;-74
2022/05/01 09:46:27;;;;;;;;;22.00;15.75;;;;;16.65;42.53;101963.44;5038731;28;45722;-75
2022/05/01 09:49:13;;;;;;;;;26.25;24.00;;;;;16.61;42.19;101970.53;5046325;28;45314;-72
2022/05/01 09:51:43;;;;;;;;;20.50;19.25;;;;;16.66;42.07;101960.78;5039851;28;45317;-75
2022/05/01 09:54:09;;;;;;;;;24.75;17.75;;;;;16.74;41.01;101965.78;5052734;28;46414;-73
2022/05/01 09:56:45;;;;;;;;;19.25;17.25;;;;;16.84;40.39;101969.81;5038264;28;45889;-69
2022/05/01 09:59:10;;;;;;;;;24.25;20.50;;;;;16.92;40.62;101967.78;5031656;28;45352;-68
2022/05/01 10:01:36;;;;;;;;;24.00;20.75;;;;;17.05;40.38;101954.25;5038214;28;45570;-69
2022/05/01 10:04:02;;;;;;;;;23.25;20.25;;;;;17.21;40.97;101952.75;5041430;28;47879;-70
2022/05/01 10:06:30;;;;;;;;;23.75;20.50;;;;;17.16;40.46;101950.31;5047746;28;45294;-69
2022/05/01 10:08:55;;;;;;;;;21.50;20.00;;;;;16.97;39.68;101954.50;5047856;28;45434;-69
2022/05/01 10:11:23;;;;;;;;;19.00;17.00;;;;;16.95;39.31;101956.31;5039655;28;45252;-69
2022/05/01 10:13:49;;;;;;;;;22.50;20.00;;;;;17.06;39.75;101945.44;5039773;28;46445;-70
2022/05/01 10:16:17;;;;;;;;;17.00;16.00;;;;;17.30;39.03;101942.78;5039562;28;45713;-70
2022/05/01 10:18:44;;;;;;;;;22.50;16.25;;;;;17.44;38.99;101937.03;5039975;28;45422;-80
2022/05/01 10:21:10;;;;;;;;;20.50;19.00;;;;;17.56;39.12;101938.34;5039512;28;45743;-70
2022/05/01 10:23:36;;;;;;;;;22.25;19.50;;;;;17.59;39.60;101938.22;5049013;28;45377;-71
2022/05/01 10:26:10;;;;;;;;;23.75;20.25;;;;;17.55;39.09;101939.25;5043033;28;45292;-76
2022/05/01 10:28:51;;;;;;;;;22.75;17.25;;;;;17.47;39.13;101930.81;5039897;28;45343;-67
2022/05/01 10:34:59;;;;;;;;;23.75;19.25;;;;;17.63;37.70;101922.31;5037641;28;45401;-74
2022/05/01 10:38:03;;;;;;;;;14.25;13.25;;;;;17.70;38.24;101915.06;5031640;28;45617;-67
2022/05/01 10:40:55;;;;;;;;;20.00;19.00;;;;;17.83;37.81;101913.69;5032068;28;45684;-65
2022/05/01 10:43:28;;;;;;;;;22.25;16.50;;;;;17.78;37.04;101917.38;5039360;28;45351;-65
2022/05/01 10:45:55;;;;;;;;;19.25;15.50;;;;;17.72;36.95;101910.59;5045375;28;46439;-65
2022/05/01 10:48:36;;;;;;;;;18.25;17.00;;;;;17.80;37.57;101899.78;5047634;28;45364;-65
2022/05/01 10:51:38;;;;;;;;;19.00;15.75;;;;;17.78;36.54;101907.72;5039398;28;45311;-65
2022/05/01 10:54:10;;;;;;;;;18.75;17.75;;;;;17.79;36.84;101903.31;5048223;28;45479;-65
2022/05/01 10:56:39;;;;;;;;;15.75;11.50;;;;;17.82;35.66;101903.19;5045719;28;47367;-66
2022/05/01 10:59:30;;;;;;;;;18.25;15.75;;;;;17.91;35.92;101898.44;5048230;28;45499;-65
2022/05/01 11:02:03;;;;;;;;;15.75;13.75;;;;;17.89;36.09;101895.03;5039027;28;45426;-66
2022/05/01 11:04:36;;;;;;;;;19.00;15.75;;;;;17.87;36.09;101894.22;5039268;28;45362;-66
2022/05/01 11:07:03;;;;;;;;;17.50;15.25;;;;;17.82;36.05;101888.31;5038830;28;45339;-66
2022/05/01 11:09:34;;;;;;;;;16.00;15.00;;;;;17.95;36.28;101888.66;5039306;28;45464;-64
2022/05/01 11:12:00;;;;;;;;;20.00;16.75;;;;;18.09;36.79;101885.47;5039012;28;45221;-65
2022/05/01 11:14:38;;;;;;;;;15.50;14.75;;;;;18.12;36.56;101880.94;5038971;28;45455;-65
2022/05/01 11:17:08;;;;;;;;;15.50;12.50;;;;;18.02;35.99;101884.00;5037651;28;46979;-65
2022/05/01 11:19:50;;;;;;;;;22.50;18.00;;;;;17.89;36.41;101883.66;5038913;28;45228;-66
2022/05/01 11:22:22;;;;;;;;;17.50;15.00;;;;;17.77;35.48;101876.22;5037692;28;45290;-67
2022/05/01 11:24:48;;;;;;;;;21.25;16.75;;;;;17.77;35.00;101866.56;5037955;28;45482;-64
2022/05/01 11:27:16;;;;;;;;;14.75;14.25;;;;;17.82;39.08;101869.91;5038462;28;46189;-59
2022/05/01 11:30:07;;;;;;;;;17.25;16.00;;;;;18.06;38.82;101870.69;5038782;28;45788;-59
2022/05/01 11:32:43;;;;;;;;;16.75;14.75;;;;;18.09;39.04;101853.91;5034034;28;45340;-58
2022/05/01 11:35:11;;;;;;;;;15.75;14.75;;;;;18.11;38.57;101857.34;5038604;28;45506;-58
2022/05/01 11:38:06;;;;;;;;;15.00;12.75;;;;;18.07;40.31;101858.38;5038593;28;46762;-57
2022/05/01 11:40:32;;;;;;;;;15.50;13.50;;;;;18.21;39.04;101858.66;5038499;28;45253;-58
2022/05/01 11:43:15;;;;;;;;;17.00;16.25;;;;;18.24;39.28;101862.03;5040950;28;45365;-57
2022/05/01 11:45:41;;;;;;;;;20.00;18.00;;;;;18.22;39.72;101855.13;5041858;28;45244;-57
2022/05/01 11:48:18;;;;;;;;;19.75;15.50;;;;;18.23;38.15;101855.06;5042128;28;45524;-57